Brilliance Of The Seas — C6SJ5 — position and weather

sailwx.info

Track history (hours):
 
Tides and Currents Weather Stations Pressure Air Temp Water Temp Dewpoint Dewpoint Depression Visibility Wind Speed Wind Dir Waves Ship Positions

Brilliance Of The Seas

Operator: Royal Caribbean Cruises Ltd

Last reported at 2017-Feb-20 22:33 UTC. Time now 2017-Feb-21 05:37 UTC.
Position N 27°44' W 082°32'.

Type: Ship. MMSI: 311361000.

Date/timePositionNaut miles runAvg speedWind from/ knotsBaromVisibWave heightAir tempDewpointWater temp
2017-Feb-20 22:33N 27°44' W 082°32'1111.4
2017-Feb-20 21:33N 27°54' W 082°26'3 2.8
2017-Feb-20 20:31N 27°57' W 082°27'0 0.0
2017-Feb-20 19:31N 27°57' W 082°27'0 0.0
2017-Feb-20 18:31N 27°57' W 082°27'0 0.0
2017-Feb-20 17:28N 27°57' W 082°27'0 0.0
2017-Feb-20 16:31N 27°57' W 082°27'0 0.0
2017-Feb-20 15:31N 27°57' W 082°27'0 0.0
2017-Feb-20 14:31N 27°57' W 082°27'0 0.0
2017-Feb-20 13:31N 27°57' W 082°27'0 0.0
2017-Feb-20 12:31N 27°57' W 082°27'0 0.0
2017-Feb-20 11:33N 27°57' W 082°27'4 3.7
2017-Feb-20 10:33N 27°53' W 082°26'1212.2
2017-Feb-20 09:33N 27°42' W 082°33'3213.3
2017-Feb-20 07:08N 27°32' W 083°08'812.8
2017-Feb-20 06:32N 27°26' W 083°12'1513.1
2017-Feb-20 05:23N 27°12' W 083°19'1113.4
2017-Feb-20 04:31N 27°01' W 083°24'1313.5
2017-Feb-20 03:33N 26°50' W 083°31'1413.9
2017-Feb-20 02:32N 26°37' W 083°38'40515.0
2017-Feb-18 23:28N 20°35' W 086°58'6 6.8
2017-Feb-18 22:33N 20°29' W 086°59'0 0.0
2017-Feb-18 21:31N 20°29' W 086°59'0 0.0
2017-Feb-18 20:33N 20°29' W 086°59'0 0.0
2017-Feb-18 19:33N 20°29' W 086°59'0 0.0
2017-Feb-18 18:33N 20°29' W 086°59'0 0.0
2017-Feb-18 17:33N 20°29' W 086°59'0 0.0
2017-Feb-18 16:33N 20°29' W 086°59'0 0.0
2017-Feb-18 15:33N 20°29' W 086°59'0 0.0
2017-Feb-18 14:33N 20°29' W 086°59'0 0.0
2017-Feb-18 13:33N 20°29' W 086°59'0 0.1
2017-Feb-18 12:33N 20°29' W 086°59'8 7.6
2017-Feb-18 11:33N 20°36' W 086°57'49113.2
2017-Feb-16 22:27N 27°44' W 082°32'1011.6
2017-Feb-16 21:33N 27°53' W 082°26'4 3.6
2017-Feb-16 20:32N 27°57' W 082°27'0 0.0
2017-Feb-16 19:32N 27°57' W 082°27'0 0.0
2017-Feb-16 18:29N 27°57' W 082°27'0 0.0
2017-Feb-16 17:32N 27°57' W 082°27'0 0.0
2017-Feb-16 16:32N 27°57' W 082°27'0 0.0
2017-Feb-16 15:32N 27°57' W 082°27'0 0.0
2017-Feb-16 14:32N 27°57' W 082°27'0 0.0
2017-Feb-16 13:32N 27°57' W 082°27'0 0.0
2017-Feb-16 12:32N 27°57' W 082°27'0 0.0
2017-Feb-16 11:33N 27°57' W 082°27'3 3.5
2017-Feb-16 10:34N 27°53' W 082°26'1212.0
2017-Feb-16 09:34N 27°43' W 082°33'49014.3
2017-Feb-14 23:21N 20°36' W 086°57'5 6.5
2017-Feb-14 22:32N 20°31' W 086°57'0 0.0
2017-Feb-14 21:23N 20°31' W 086°57'0 0.0
2017-Feb-14 20:29N 20°31' W 086°57'0 0.0
2017-Feb-14 19:28N 20°31' W 086°57'0 0.0
2017-Feb-14 17:29N 20°31' W 086°57'0 0.0
2017-Feb-14 16:26N 20°31' W 086°57'0 0.0
2017-Feb-14 15:29N 20°31' W 086°57'0 0.0
2017-Feb-14 14:32N 20°31' W 086°57'0 0.0
2017-Feb-14 13:20N 20°31' W 086°57'0 0.0
2017-Feb-14 12:32N 20°31' W 086°57'3 3.3
2017-Feb-14 11:34N 20°34' W 086°58'  
2017-Feb-12 03:33N 26°38' W 083°07'1918.7
2017-Feb-12 02:33N 26°57' W 083°05'5513.8
2017-Feb-11 22:33N 27°44' W 082°32'1211.6
2017-Feb-11 21:33N 27°54' W 082°26'3 2.6
2017-Feb-11 20:32N 27°57' W 082°27'0 0.0
2017-Feb-11 19:32N 27°57' W 082°27'0 0.0
2017-Feb-11 18:32N 27°57' W 082°27'0 0.0
2017-Feb-11 17:32N 27°57' W 082°27'0 0.0
2017-Feb-11 16:32N 27°57' W 082°27'0 0.0
2017-Feb-11 15:32N 27°57' W 082°27'0 0.0
2017-Feb-11 14:32N 27°57' W 082°27'0 0.0
2017-Feb-11 13:32N 27°57' W 082°27'0 0.0
2017-Feb-11 12:32N 27°57' W 082°27'0 0.1
2017-Feb-11 11:33N 27°57' W 082°27'4 3.7
2017-Feb-11 10:33N 27°53' W 082°26'1212.2
2017-Feb-11 09:33N 27°42' W 082°33'  
Track history (hours):
 
Tides and Currents Weather Stations Pressure Air Temp Water Temp Dewpoint Dewpoint Depression Visibility Wind Speed Wind Dir Waves Ship Positions

Brilliance Of The Seas

Operator: Royal Caribbean Cruises Ltd

Last reported at 2017-Feb-20 22:33 UTC. Time now 2017-Feb-21 05:37 UTC.
Position N 27°44' W 082°32'.

Type: Ship. MMSI: 311361000.

Date/timePositionNaut miles runAvg speedWind from/ knotsBaromVisibWave heightAir tempDewpointWater temp
2017-Feb-20 22:33N 27°44' W 082°32'1111.4
2017-Feb-20 21:33N 27°54' W 082°26'3 2.8
2017-Feb-20 20:31N 27°57' W 082°27'0 0.0
2017-Feb-20 19:31N 27°57' W 082°27'0 0.0
2017-Feb-20 18:31N 27°57' W 082°27'0 0.0
2017-Feb-20 17:28N 27°57' W 082°27'0 0.0
2017-Feb-20 16:31N 27°57' W 082°27'0 0.0
2017-Feb-20 15:31N 27°57' W 082°27'0 0.0
2017-Feb-20 14:31N 27°57' W 082°27'0 0.0
2017-Feb-20 13:31N 27°57' W 082°27'0 0.0
2017-Feb-20 12:31N 27°57' W 082°27'0 0.0
2017-Feb-20 11:33N 27°57' W 082°27'4 3.7
2017-Feb-20 10:33N 27°53' W 082°26'1212.2
2017-Feb-20 09:33N 27°42' W 082°33'3213.3
2017-Feb-20 07:08N 27°32' W 083°08'812.8
2017-Feb-20 06:32N 27°26' W 083°12'1513.1
2017-Feb-20 05:23N 27°12' W 083°19'1113.4
2017-Feb-20 04:31N 27°01' W 083°24'1313.5
2017-Feb-20 03:33N 26°50' W 083°31'1413.9
2017-Feb-20 02:32N 26°37' W 083°38'40515.0
2017-Feb-18 23:28N 20°35' W 086°58'6 6.8
2017-Feb-18 22:33N 20°29' W 086°59'0 0.0
2017-Feb-18 21:31N 20°29' W 086°59'0 0.0
2017-Feb-18 20:33N 20°29' W 086°59'0 0.0
2017-Feb-18 19:33N 20°29' W 086°59'0 0.0
2017-Feb-18 18:33N 20°29' W 086°59'0 0.0
2017-Feb-18 17:33N 20°29' W 086°59'0 0.0
2017-Feb-18 16:33N 20°29' W 086°59'0 0.0
2017-Feb-18 15:33N 20°29' W 086°59'0 0.0
2017-Feb-18 14:33N 20°29' W 086°59'0 0.0
2017-Feb-18 13:33N 20°29' W 086°59'0 0.1
2017-Feb-18 12:33N 20°29' W 086°59'8 7.6
2017-Feb-18 11:33N 20°36' W 086°57'49113.2
2017-Feb-16 22:27N 27°44' W 082°32'1011.6
2017-Feb-16 21:33N 27°53' W 082°26'4 3.6
2017-Feb-16 20:32N 27°57' W 082°27'0 0.0
2017-Feb-16 19:32N 27°57' W 082°27'0 0.0
2017-Feb-16 18:29N 27°57' W 082°27'0 0.0
2017-Feb-16 17:32N 27°57' W 082°27'0 0.0
2017-Feb-16 16:32N 27°57' W 082°27'0 0.0
2017-Feb-16 15:32N 27°57' W 082°27'0 0.0
2017-Feb-16 14:32N 27°57' W 082°27'0 0.0
2017-Feb-16 13:32N 27°57' W 082°27'0 0.0
2017-Feb-16 12:32N 27°57' W 082°27'0 0.0
2017-Feb-16 11:33N 27°57' W 082°27'3 3.5
2017-Feb-16 10:34N 27°53' W 082°26'1212.0
2017-Feb-16 09:34N 27°43' W 082°33'49014.3
2017-Feb-14 23:21N 20°36' W 086°57'5 6.5
2017-Feb-14 22:32N 20°31' W 086°57'0 0.0
2017-Feb-14 21:23N 20°31' W 086°57'0 0.0
2017-Feb-14 20:29N 20°31' W 086°57'0 0.0
2017-Feb-14 19:28N 20°31' W 086°57'0 0.0
2017-Feb-14 17:29N 20°31' W 086°57'0 0.0
2017-Feb-14 16:26N 20°31' W 086°57'0 0.0
2017-Feb-14 15:29N 20°31' W 086°57'0 0.0
2017-Feb-14 14:32N 20°31' W 086°57'0 0.0
2017-Feb-14 13:20N 20°31' W 086°57'0 0.0
2017-Feb-14 12:32N 20°31' W 086°57'3 3.3
2017-Feb-14 11:34N 20°34' W 086°58'  
2017-Feb-12 03:33N 26°38' W 083°07'1918.7
2017-Feb-12 02:33N 26°57' W 083°05'5513.8
2017-Feb-11 22:33N 27°44' W 082°32'1211.6
2017-Feb-11 21:33N 27°54' W 082°26'3 2.6
2017-Feb-11 20:32N 27°57' W 082°27'0 0.0
2017-Feb-11 19:32N 27°57' W 082°27'0 0.0
2017-Feb-11 18:32N 27°57' W 082°27'0 0.0
2017-Feb-11 17:32N 27°57' W 082°27'0 0.0
2017-Feb-11 16:32N 27°57' W 082°27'0 0.0
2017-Feb-11 15:32N 27°57' W 082°27'0 0.0
2017-Feb-11 14:32N 27°57' W 082°27'0 0.0
2017-Feb-11 13:32N 27°57' W 082°27'0 0.0
2017-Feb-11 12:32N 27°57' W 082°27'0 0.1
2017-Feb-11 11:33N 27°57' W 082°27'4 3.7
2017-Feb-11 10:33N 27°53' W 082°26'1212.2
2017-Feb-11 09:33N 27°42' W 082°33'  

Dump ship's entire track history